Time;durP1;ratioP1;P1;durP2;ratioP2;P2;SDS_P1;SDS_P2;PMS_P1;PMS_P2;Temp;Humidity;BMP_temperature;BMP_pressure;BME280_temperature;BME280_humidity;BME280_pressure;Samples;Min_cycle;Max_cycle;Signal;HPM_P1;HPM_P2
2022/10/21 00:02:13;;;;;;;56.40;31.67;;;;;;;;;;4941250;28;20073;-66
2022/10/21 00:04:39;;;;;;;62.30;33.60;;;;;;;;;;4958867;28;20053;-66
2022/10/21 00:07:05;;;;;;;58.97;32.40;;;;;;;;;;4952719;28;20665;-66
2022/10/21 00:09:31;;;;;;;68.55;33.35;;;;;;;;;;4953041;28;20689;-66
2022/10/21 00:11:57;;;;;;;70.97;36.05;;;;;;;;;;4952846;28;20055;-66
2022/10/21 00:14:23;;;;;;;57.80;32.85;;;;;;;;;;4940055;28;20058;-66
2022/10/21 00:16:49;;;;;;;61.58;33.55;;;;;;;;;;4954577;28;21310;-66
2022/10/21 00:19:16;;;;;;;59.30;34.40;;;;;;;;;;4955688;28;20043;-66
2022/10/21 00:21:42;;;;;;;67.88;33.97;;;;;;;;;;4956706;28;20158;-66
2022/10/21 00:24:08;;;;;;;60.53;32.70;;;;;;;;;;4952240;28;20537;-66
2022/10/21 00:26:34;;;;;;;64.00;35.00;;;;;;;;;;4939011;28;20061;-66
2022/10/21 00:29:01;;;;;;;57.92;33.72;;;;;;;;;;4955569;28;20141;-66
2022/10/21 00:31:27;;;;;;;73.75;34.00;;;;;;;;;;4952596;28;20122;-66
2022/10/21 00:33:53;;;;;;;62.75;34.90;;;;;;;;;;4953934;28;20054;-66
2022/10/21 00:36:19;;;;;;;57.72;34.42;;;;;;;;;;4957592;28;20413;-66
2022/10/21 00:38:47;;;;;;;58.08;33.88;;;;;;;;;;4958834;28;20470;-66
2022/10/21 00:41:14;;;;;;;61.22;33.70;;;;;;;;;;4953209;28;20043;-66
2022/10/21 00:43:57;;;;;;;60.38;33.75;;;;;;;;;;4942572;28;20117;-66
2022/10/21 00:46:29;;;;;;;63.42;33.67;;;;;;;;;;4940737;28;20389;-66
2022/10/21 00:48:57;;;;;;;68.50;34.53;;;;;;;;;;4962303;28;20054;-65
2022/10/21 00:51:23;;;;;;;69.60;37.15;;;;;;;;;;4959532;28;20046;-66
2022/10/21 00:53:49;;;;;;;77.10;35.65;;;;;;;;;;4956149;28;20138;-67
2022/10/21 00:56:23;;;;;;;64.95;35.80;;;;;;;;;;4945336;28;20478;-68
2022/10/21 00:58:50;;;;;;;65.65;33.88;;;;;;;;;;4945876;28;20047;-66
2022/10/21 01:01:16;;;;;;;83.40;36.53;;;;;;;;;;4960606;28;20034;-66
2022/10/21 01:03:42;;;;;;;68.00;34.47;;;;;;;;;;4964301;28;20406;-66
2022/10/21 01:06:10;;;;;;;68.90;36.47;;;;;;;;;;4952471;28;20505;-66
2022/10/21 01:08:36;;;;;;;62.47;35.50;;;;;;;;;;4941740;28;20506;-66
2022/10/21 01:11:03;;;;;;;67.68;35.28;;;;;;;;;;4942609;28;20097;-66
2022/10/21 01:13:30;;;;;;;62.30;33.70;;;;;;;;;;4959976;28;20394;-66
2022/10/21 01:16:15;;;;;;;72.13;34.78;;;;;;;;;;4937355;28;20608;-66
2022/10/21 01:18:54;;;;;;;64.13;33.70;;;;;;;;;;4957716;28;20181;-66
2022/10/21 01:21:22;;;;;;;63.63;35.20;;;;;;;;;;4956197;28;20127;-66
2022/10/21 01:23:48;;;;;;;70.50;35.50;;;;;;;;;;4959034;28;20058;-66
2022/10/21 01:26:24;;;;;;;65.82;36.03;;;;;;;;;;4959411;28;20121;-66
2022/10/21 01:28:56;;;;;;;74.50;35.42;;;;;;;;;;4957975;28;20043;-66
2022/10/21 01:31:36;;;;;;;68.80;34.30;;;;;;;;;;4962611;28;20046;-65
2022/10/21 01:34:02;;;;;;;80.68;37.13;;;;;;;;;;4958448;28;20398;-66
2022/10/21 01:36:39;;;;;;;74.95;38.10;;;;;;;;;;4942072;28;20062;-66
2022/10/21 01:39:12;;;;;;;68.38;36.03;;;;;;;;;;4955515;28;20047;-66
2022/10/21 01:41:42;;;;;;;80.30;38.35;;;;;;;;;;4955695;28;20161;-66
2022/10/21 01:44:12;;;;;;;82.75;39.45;;;;;;;;;;4939231;28;20042;-66
2022/10/21 01:46:41;;;;;;;75.45;38.40;;;;;;;;;;4944276;28;20097;-66
2022/10/21 01:49:10;;;;;;;81.80;37.67;;;;;;;;;;4939763;28;20046;-66
2022/10/21 01:51:37;;;;;;;75.00;39.10;;;;;;;;;;4958163;28;20038;-66
2022/10/21 01:54:07;;;;;;;72.20;38.80;;;;;;;;;;4958717;28;20099;-66
2022/10/21 01:56:34;;;;;;;82.60;39.20;;;;;;;;;;4958993;28;20043;-66
2022/10/21 01:59:02;;;;;;;76.93;39.25;;;;;;;;;;4940759;28;20567;-66
2022/10/21 02:01:28;;;;;;;70.05;36.42;;;;;;;;;;4953930;28;20486;-65
2022/10/21 02:03:58;;;;;;;74.15;37.20;;;;;;;;;;4954967;28;20062;-66
2022/10/21 02:06:24;;;;;;;81.20;37.92;;;;;;;;;;4934642;28;20050;-66
2022/10/21 02:08:51;;;;;;;66.70;37.35;;;;;;;;;;4954181;28;20043;-66
2022/10/21 02:11:17;;;;;;;72.28;37.42;;;;;;;;;;4954954;28;20054;-66
2022/10/21 02:13:44;;;;;;;70.18;37.95;;;;;;;;;;4956023;28;20062;-66
2022/10/21 02:16:12;;;;;;;66.82;36.03;;;;;;;;;;4939886;28;20600;-66
2022/10/21 02:18:39;;;;;;;72.47;37.63;;;;;;;;;;4937736;28;20058;-66
2022/10/21 02:21:07;;;;;;;70.65;37.28;;;;;;;;;;4955489;28;20035;-66
2022/10/21 02:23:39;;;;;;;65.45;35.95;;;;;;;;;;4952491;28;20046;-66
2022/10/21 02:26:05;;;;;;;72.90;38.78;;;;;;;;;;4955279;28;20046;-66
2022/10/21 02:28:31;;;;;;;77.03;38.28;;;;;;;;;;4964724;28;20043;-66
2022/10/21 02:31:08;;;;;;;81.05;39.97;;;;;;;;;;4943229;28;20093;-66
2022/10/21 02:33:43;;;;;;;80.25;39.03;;;;;;;;;;4956759;28;20071;-66
2022/10/21 02:36:16;;;;;;;83.00;40.63;;;;;;;;;;4954324;28;20066;-66
2022/10/21 02:38:47;;;;;;;72.93;39.65;;;;;;;;;;4954978;28;20058;-66
2022/10/21 02:41:15;;;;;;;75.70;39.65;;;;;;;;;;4953492;28;20519;-66
2022/10/21 02:43:43;;;;;;;76.82;40.47;;;;;;;;;;4957611;28;20054;-64
2022/10/21 02:46:10;;;;;;;83.97;41.85;;;;;;;;;;4956845;28;20138;-66
2022/10/21 02:48:37;;;;;;;90.90;42.83;;;;;;;;;;4961026;28;20104;-66
2022/10/21 02:51:04;;;;;;;89.55;41.55;;;;;;;;;;4957019;28;21998;-66
2022/10/21 02:53:31;;;;;;;107.93;44.92;;;;;;;;;;4952909;28;20042;-66
2022/10/21 02:55:57;;;;;;;101.97;45.60;;;;;;;;;;4955377;28;20323;-66
2022/10/21 02:58:23;;;;;;;110.03;44.65;;;;;;;;;;4956894;28;20074;-66
2022/10/21 03:00:49;;;;;;;105.07;44.05;;;;;;;;;;4954682;28;20099;-66
2022/10/21 03:03:15;;;;;;;97.43;42.65;;;;;;;;;;4957099;28;20047;-66
2022/10/21 03:05:41;;;;;;;94.57;44.95;;;;;;;;;;4956121;28;20156;-66
2022/10/21 03:08:07;;;;;;;89.78;42.60;;;;;;;;;;4955639;28;20057;-66
2022/10/21 03:10:34;;;;;;;96.07;43.38;;;;;;;;;;4972223;28;20118;-66
2022/10/21 03:13:00;;;;;;;96.22;43.17;;;;;;;;;;4954433;28;20046;-66
2022/10/21 03:15:26;;;;;;;95.25;44.55;;;;;;;;;;4955849;28;20046;-66
2022/10/21 03:17:52;;;;;;;112.90;46.75;;;;;;;;;;4956047;28;20061;-66
2022/10/21 03:20:18;;;;;;;132.63;48.22;;;;;;;;;;4957947;28;20151;-66
2022/10/21 03:22:44;;;;;;;109.38;45.75;;;;;;;;;;4952751;28;20046;-66
2022/10/21 03:25:11;;;;;;;113.88;45.78;;;;;;;;;;4951527;28;20038;-66
2022/10/21 03:27:38;;;;;;;133.48;48.58;;;;;;;;;;4956135;28;20538;-66
2022/10/21 03:30:05;;;;;;;123.22;46.90;;;;;;;;;;4953955;28;20042;-66
2022/10/21 03:32:31;;;;;;;106.00;45.22;;;;;;;;;;4950529;28;20098;-66
2022/10/21 03:34:57;;;;;;;93.53;42.50;;;;;;;;;;4953855;28;20062;-66
2022/10/21 03:37:23;;;;;;;98.57;41.65;;;;;;;;;;4954705;28;20062;-66
2022/10/21 03:39:49;;;;;;;105.82;44.25;;;;;;;;;;4957375;28;20058;-66
2022/10/21 03:42:15;;;;;;;96.25;41.97;;;;;;;;;;4953662;28;20909;-66
2022/10/21 03:44:42;;;;;;;98.70;42.22;;;;;;;;;;4952419;28;20132;-66
2022/10/21 03:47:08;;;;;;;106.38;43.72;;;;;;;;;;4953074;28;20766;-66
2022/10/21 03:49:34;;;;;;;105.38;41.88;;;;;;;;;;4952152;28;20466;-66
2022/10/21 03:52:00;;;;;;;105.22;42.25;;;;;;;;;;4957164;28;20062;-66
2022/10/21 03:54:26;;;;;;;116.03;42.70;;;;;;;;;;4958575;28;20114;-66
2022/10/21 03:56:53;;;;;;;93.40;39.95;;;;;;;;;;4951829;28;20530;-66
2022/10/21 03:59:19;;;;;;;96.97;38.55;;;;;;;;;;4955082;28;20127;-66
2022/10/21 04:01:45;;;;;;;101.68;40.40;;;;;;;;;;4951619;28;20050;-66
2022/10/21 04:04:11;;;;;;;91.43;37.85;;;;;;;;;;4954991;28;20069;-66
2022/10/21 04:06:37;;;;;;;91.60;37.28;;;;;;;;;;4954866;28;20035;-66
2022/10/21 04:09:03;;;;;;;88.75;36.35;;;;;;;;;;4958732;28;20070;-66
2022/10/21 04:11:29;;;;;;;96.78;37.83;;;;;;;;;;4960774;28;20487;-66
2022/10/21 04:13:56;;;;;;;78.80;34.85;;;;;;;;;;4962203;28;20065;-66
2022/10/21 04:16:22;;;;;;;91.63;37.00;;;;;;;;;;4960205;28;20039;-66
2022/10/21 04:18:48;;;;;;;85.13;34.72;;;;;;;;;;4963128;28;20061;-66
2022/10/21 04:21:14;;;;;;;79.30;34.65;;;;;;;;;;4953895;28;20046;-66
2022/10/21 04:23:40;;;;;;;86.93;36.00;;;;;;;;;;4953774;28;20154;-66
2022/10/21 04:26:07;;;;;;;82.28;35.55;;;;;;;;;;4954792;28;20062;-66
2022/10/21 04:28:33;;;;;;;89.88;35.67;;;;;;;;;;4955562;28;20078;-66
2022/10/21 04:30:59;;;;;;;96.07;37.88;;;;;;;;;;4957770;28;20053;-66
2022/10/21 04:33:25;;;;;;;88.50;36.88;;;;;;;;;;4956064;28;20121;-66
2022/10/21 04:35:53;;;;;;;85.53;37.20;;;;;;;;;;4962000;28;20043;-66
2022/10/21 04:38:19;;;;;;;95.30;36.97;;;;;;;;;;4940851;28;20141;-66
2022/10/21 04:40:45;;;;;;;91.35;37.45;;;;;;;;;;4941628;28;20039;-66
2022/10/21 04:43:11;;;;;;;91.35;36.22;;;;;;;;;;4956336;28;20046;-66
2022/10/21 04:45:38;;;;;;;86.32;38.50;;;;;;;;;;4956137;28;20047;-66
2022/10/21 04:48:05;;;;;;;100.47;38.85;;;;;;;;;;4958207;28;20050;-66
2022/10/21 04:50:33;;;;;;;109.00;40.95;;;;;;;;;;4944850;28;20055;-66
2022/10/21 04:53:00;;;;;;;96.25;39.55;;;;;;;;;;4943074;28;20055;-66
2022/10/21 04:55:26;;;;;;;112.50;41.85;;;;;;;;;;4960737;28;20047;-66
2022/10/21 04:57:52;;;;;;;107.15;41.08;;;;;;;;;;4963246;28;20054;-66
2022/10/21 05:00:18;;;;;;;119.47;42.60;;;;;;;;;;4941189;28;20070;-66
2022/10/21 05:02:44;;;;;;;110.53;40.55;;;;;;;;;;4941559;28;20039;-66
2022/10/21 05:05:10;;;;;;;90.25;38.45;;;;;;;;;;4958313;28;20409;-66
2022/10/21 05:07:36;;;;;;;105.38;40.55;;;;;;;;;;4957257;28;20495;-66
2022/10/21 05:10:03;;;;;;;119.97;42.63;;;;;;;;;;4956764;28;20047;-66
2022/10/21 05:12:29;;;;;;;109.65;39.92;;;;;;;;;;4956561;28;20047;-66
2022/10/21 05:14:55;;;;;;;103.10;39.53;;;;;;;;;;4961267;28;20045;-66
2022/10/21 05:17:21;;;;;;;104.95;39.33;;;;;;;;;;4938484;28;20062;-66
2022/10/21 05:19:47;;;;;;;111.25;39.22;;;;;;;;;;4952614;28;20046;-66
2022/10/21 05:22:13;;;;;;;106.32;41.10;;;;;;;;;;4940487;28;20050;-66
2022/10/21 05:24:39;;;;;;;99.93;38.42;;;;;;;;;;4959098;28;20130;-66
2022/10/21 05:27:06;;;;;;;114.07;40.28;;;;;;;;;;4953872;28;20066;-66
2022/10/21 05:29:32;;;;;;;115.95;41.85;;;;;;;;;;4960205;28;20053;-66
2022/10/21 05:31:58;;;;;;;104.15;41.33;;;;;;;;;;4958357;28;20051;-66
2022/10/21 05:34:24;;;;;;;113.85;42.92;;;;;;;;;;4943773;28;20063;-66
2022/10/21 05:36:50;;;;;;;112.53;42.90;;;;;;;;;;4961584;28;20158;-66
2022/10/21 05:39:16;;;;;;;128.60;45.80;;;;;;;;;;4958762;28;20039;-65
2022/10/21 05:41:42;;;;;;;106.90;42.33;;;;;;;;;;4957596;28;20039;-66
2022/10/21 05:44:09;;;;;;;118.28;45.17;;;;;;;;;;4956370;28;20075;-66
2022/10/21 05:46:35;;;;;;;118.85;44.30;;;;;;;;;;4959176;28;21600;-66
2022/10/21 05:49:01;;;;;;;127.18;45.70;;;;;;;;;;4954598;28;20042;-65
2022/10/21 05:51:27;;;;;;;136.75;47.22;;;;;;;;;;4958091;28;20670;-66
2022/10/21 05:53:54;;;;;;;115.22;43.38;;;;;;;;;;4943756;28;20137;-66
2022/10/21 05:56:20;;;;;;;120.55;43.78;;;;;;;;;;4958341;28;20039;-66
2022/10/21 05:58:46;;;;;;;126.03;44.60;;;;;;;;;;4959575;28;20051;-65
2022/10/21 06:01:12;;;;;;;125.80;45.90;;;;;;;;;;4956175;28;20184;-66
2022/10/21 06:03:39;;;;;;;114.35;43.85;;;;;;;;;;4957223;28;20257;-66
2022/10/21 06:06:06;;;;;;;137.40;44.25;;;;;;;;;;4960075;28;20043;-65
2022/10/21 06:08:33;;;;;;;131.98;45.00;;;;;;;;;;4954211;28;20047;-65
2022/10/21 06:11:01;;;;;;;136.88;48.40;;;;;;;;;;4956225;28;20107;-65
2022/10/21 06:13:27;;;;;;;117.45;43.00;;;;;;;;;;4941283;28;20498;-65
2022/10/21 06:15:53;;;;;;;138.57;44.38;;;;;;;;;;4957510;28;20070;-66
2022/10/21 06:18:19;;;;;;;125.38;42.17;;;;;;;;;;4962484;28;20054;-64
2022/10/21 06:20:45;;;;;;;142.80;46.25;;;;;;;;;;4945829;28;20521;-65
2022/10/21 06:23:14;;;;;;;124.78;43.85;;;;;;;;;;4942957;28;20059;-66
2022/10/21 06:25:40;;;;;;;149.05;47.78;;;;;;;;;;4962185;28;20118;-66
2022/10/21 06:28:06;;;;;;;149.77;49.63;;;;;;;;;;4964182;28;20043;-66
2022/10/21 06:30:33;;;;;;;137.45;48.15;;;;;;;;;;4941974;28;20139;-66
2022/10/21 06:32:59;;;;;;;144.82;46.83;;;;;;;;;;4946563;28;20070;-66
2022/10/21 06:35:25;;;;;;;149.68;48.38;;;;;;;;;;4954938;28;20043;-66
2022/10/21 06:37:51;;;;;;;138.93;46.67;;;;;;;;;;4958686;28;20406;-66
2022/10/21 06:40:18;;;;;;;157.00;51.38;;;;;;;;;;4958814;28;20782;-65
2022/10/21 06:42:44;;;;;;;145.25;48.30;;;;;;;;;;4953640;28;20628;-65
2022/10/21 06:45:10;;;;;;;166.73;51.63;;;;;;;;;;4960507;28;20038;-66
2022/10/21 06:47:36;;;;;;;134.02;49.53;;;;;;;;;;4963196;28;20038;-66
2022/10/21 06:50:02;;;;;;;156.30;53.03;;;;;;;;;;4960824;28;20039;-67
2022/10/21 06:52:37;;;;;;;148.55;52.55;;;;;;;;;;5124562;27;20137;-64
2022/10/21 06:55:03;;;;;;;156.10;52.53;;;;;;;;;;5095520;28;20048;-64
2022/10/21 06:57:29;;;;;;;147.00;51.47;;;;;;;;;;5081873;28;20036;-64
2022/10/21 06:59:55;;;;;;;167.02;53.10;;;;;;;;;;5082001;28;20051;-63
2022/10/21 07:02:23;;;;;;;138.30;51.30;;;;;;;;;;5082567;28;20116;-63
2022/10/21 07:04:49;;;;;;;164.70;50.65;;;;;;;;;;5083366;28;20052;-64
2022/10/21 07:07:15;;;;;;;145.85;49.95;;;;;;;;;;5077073;28;20033;-63
2022/10/21 07:09:42;;;;;;;148.35;49.83;;;;;;;;;;5079489;28;20036;-63
2022/10/21 07:12:08;;;;;;;133.82;49.30;;;;;;;;;;5079049;28;20055;-63
2022/10/21 07:14:34;;;;;;;135.50;48.92;;;;;;;;;;5111851;28;20131;-63
2022/10/21 07:17:00;;;;;;;134.02;48.78;;;;;;;;;;5093632;28;20059;-63
2022/10/21 07:19:27;;;;;;;113.70;45.17;;;;;;;;;;5081343;28;20048;-63
2022/10/21 07:21:53;;;;;;;133.23;47.92;;;;;;;;;;5082228;28;20112;-63
2022/10/21 07:24:19;;;;;;;123.28;46.63;;;;;;;;;;5111296;28;20402;-63
2022/10/21 07:26:46;;;;;;;121.50;47.20;;;;;;;;;;5080593;28;20119;-63
2022/10/21 07:29:13;;;;;;;117.10;45.67;;;;;;;;;;5078291;28;20044;-63
2022/10/21 07:31:39;;;;;;;121.53;46.50;;;;;;;;;;5080342;28;20040;-63
2022/10/21 07:34:07;;;;;;;119.80;47.30;;;;;;;;;;5080300;28;20048;-63
2022/10/21 07:36:35;;;;;;;123.18;47.33;;;;;;;;;;5077858;28;20040;-63
2022/10/21 07:39:03;;;;;;;114.65;47.20;;;;;;;;;;5077759;28;20046;-63
2022/10/21 07:41:31;;;;;;;114.07;46.55;;;;;;;;;;5106646;28;20141;-63
2022/10/21 07:43:58;;;;;;;117.57;46.10;;;;;;;;;;5078666;28;20368;-63
2022/10/21 07:46:24;;;;;;;98.35;44.33;;;;;;;;;;5107262;28;20058;-63
2022/10/21 07:48:50;;;;;;;107.93;45.30;;;;;;;;;;5079905;28;20039;-65
2022/10/21 07:51:18;;;;;;;103.78;45.42;;;;;;;;;;5109564;28;20648;-65
2022/10/21 07:53:45;;;;;;;98.63;42.30;;;;;;;;;;5077807;28;20368;-65
2022/10/21 07:56:13;;;;;;;86.10;40.45;;;;;;;;;;5108412;28;20064;-68
2022/10/21 07:58:39;;;;;;;82.70;38.47;;;;;;;;;;5094140;28;20036;-65
2022/10/21 08:01:06;;;;;;;85.10;39.47;;;;;;;;;;5077789;28;20424;-65
2022/10/21 08:03:32;;;;;;;81.03;38.08;;;;;;;;;;5092678;28;20044;-65
2022/10/21 08:05:59;;;;;;;82.65;38.42;;;;;;;;;;5063541;28;20041;-65
2022/10/21 08:08:25;;;;;;;88.60;36.88;;;;;;;;;;5061734;28;20449;-65
2022/10/21 08:10:53;;;;;;;89.13;38.85;;;;;;;;;;5064029;28;20367;-64
2022/10/21 08:13:19;;;;;;;85.30;39.17;;;;;;;;;;5061167;28;20498;-64
2022/10/21 08:15:46;;;;;;;83.13;37.28;;;;;;;;;;5057162;28;20036;-65
2022/10/21 08:18:13;;;;;;;84.43;36.00;;;;;;;;;;5065517;28;20040;-65
2022/10/21 08:20:40;;;;;;;68.57;33.92;;;;;;;;;;5067573;28;20403;-65
2022/10/21 08:23:07;;;;;;;73.90;35.90;;;;;;;;;;5064264;28;20036;-65
2022/10/21 08:25:34;;;;;;;77.93;34.40;;;;;;;;;;5059576;28;20048;-65
2022/10/21 08:28:00;;;;;;;71.88;33.35;;;;;;;;;;5062048;28;20048;-62
2022/10/21 08:30:30;;;;;;;77.57;35.67;;;;;;;;;;5063437;28;20058;-64
2022/10/21 08:32:57;;;;;;;68.15;33.67;;;;;;;;;;5063171;28;20675;-64
2022/10/21 08:35:23;;;;;;;76.85;35.92;;;;;;;;;;5064987;28;20037;-65
2022/10/21 08:37:49;;;;;;;62.03;34.08;;;;;;;;;;5099227;28;20506;-67
2022/10/21 08:40:16;;;;;;;67.38;32.65;;;;;;;;;;5064879;28;20471;-65
2022/10/21 08:42:44;;;;;;;65.32;31.35;;;;;;;;;;5098927;28;20044;-64
2022/10/21 08:45:15;;;;;;;62.22;33.10;;;;;;;;;;5097952;28;20045;-64
2022/10/21 08:47:44;;;;;;;67.57;33.65;;;;;;;;;;5065079;28;20178;-64
2022/10/21 08:50:11;;;;;;;62.83;32.90;;;;;;;;;;5066148;28;20483;-65
2022/10/21 08:52:39;;;;;;;62.63;32.15;;;;;;;;;;5081281;28;20178;-64
2022/10/21 08:55:07;;;;;;;54.67;29.48;;;;;;;;;;5066514;28;20548;-64
2022/10/21 08:57:34;;;;;;;55.88;31.65;;;;;;;;;;5066071;28;20067;-65
2022/10/21 09:00:00;;;;;;;54.20;30.25;;;;;;;;;;5066168;28;20412;-65
2022/10/21 09:02:27;;;;;;;53.40;30.10;;;;;;;;;;5064934;28;20480;-67
2022/10/21 09:05:12;;;;;;;48.15;27.33;;;;;;;;;;5063333;28;20048;-65
2022/10/21 09:07:56;;;;;;;49.75;28.17;;;;;;;;;;5064955;28;20036;-64
2022/10/21 09:10:39;;;;;;;42.80;26.23;;;;;;;;;;5065937;28;20162;-65
2022/10/21 09:13:06;;;;;;;49.75;28.05;;;;;;;;;;5065950;28;20047;-65
2022/10/21 09:15:34;;;;;;;47.50;26.00;;;;;;;;;;5093332;28;20131;-65
2022/10/21 09:18:06;;;;;;;403.38;73.20;;;;;;;;;;5063069;28;20115;-64
2022/10/21 09:20:41;;;;;;;49.40;24.83;;;;;;;;;;5063506;28;20481;-64
2022/10/21 09:23:16;;;;;;;51.80;25.63;;;;;;;;;;5063311;28;20048;-64
2022/10/21 09:25:57;;;;;;;43.75;25.67;;;;;;;;;;5065285;28;20155;-65
2022/10/21 09:28:24;;;;;;;49.08;24.88;;;;;;;;;;5061548;28;20036;-64
2022/10/21 09:30:50;;;;;;;44.08;25.25;;;;;;;;;;5065182;28;20419;-67
2022/10/21 09:33:20;;;;;;;48.60;25.85;;;;;;;;;;5063402;28;20048;-67
2022/10/21 09:35:50;;;;;;;41.72;24.73;;;;;;;;;;5065948;28;20082;-67
2022/10/21 09:38:19;;;;;;;51.45;25.30;;;;;;;;;;5064377;28;20070;-67
2022/10/21 09:40:46;;;;;;;43.10;23.60;;;;;;;;;;5064910;28;20048;-65
2022/10/21 09:43:16;;;;;;;42.15;22.48;;;;;;;;;;5064410;28;20049;-65
2022/10/21 09:45:44;;;;;;;47.53;23.73;;;;;;;;;;5061129;28;20051;-65
2022/10/21 09:48:17;;;;;;;43.75;23.65;;;;;;;;;;5063675;28;20516;-65
2022/10/21 09:50:45;;;;;;;37.85;22.95;;;;;;;;;;5066172;28;20400;-65
2022/10/21 09:53:17;;;;;;;36.22;21.98;;;;;;;;;;5063796;28;20053;-65
2022/10/21 09:55:45;;;;;;;40.03;23.00;;;;;;;;;;5062902;28;20344;-65
2022/10/21 09:58:23;;;;;;;34.90;22.02;;;;;;;;;;5064302;28;20467;-64
2022/10/21 10:00:50;;;;;;;42.13;23.23;;;;;;;;;;5053045;28;20217;-64
2022/10/21 10:03:29;;;;;;;39.72;22.10;;;;;;;;;;5091324;28;20044;-64
2022/10/21 10:05:56;;;;;;;42.35;23.20;;;;;;;;;;5061552;28;20594;-64
2022/10/21 10:08:28;;;;;;;37.35;23.10;;;;;;;;;;5061853;28;20093;-64
2022/10/21 10:11:09;;;;;;;34.97;22.02;;;;;;;;;;5063646;28;20044;-64
2022/10/21 10:13:35;;;;;;;38.22;22.45;;;;;;;;;;5061592;28;20499;-64
2022/10/21 10:16:16;;;;;;;33.72;20.58;;;;;;;;;;5062886;28;20491;-62
2022/10/21 10:18:43;;;;;;;36.17;20.38;;;;;;;;;;5062232;28;20045;-67
2022/10/21 10:21:10;;;;;;;44.00;22.35;;;;;;;;;;5092451;28;20048;-67
2022/10/21 10:23:44;;;;;;;36.75;20.73;;;;;;;;;;5089920;28;20038;-64
2022/10/21 10:26:11;;;;;;;35.33;20.27;;;;;;;;;;5091900;28;20544;-65
2022/10/21 10:28:37;;;;;;;37.75;21.90;;;;;;;;;;5092147;28;20136;-68
2022/10/21 10:31:04;;;;;;;37.80;20.80;;;;;;;;;;5062714;28;20235;-64
2022/10/21 10:33:31;;;;;;;39.22;21.27;;;;;;;;;;5058704;28;20064;-65
2022/10/21 10:35:59;;;;;;;33.42;20.80;;;;;;;;;;5060931;28;20159;-65
2022/10/21 10:38:28;;;;;;;33.08;19.25;;;;;;;;;;5062849;28;20051;-67
2022/10/21 10:41:02;;;;;;;34.58;18.70;;;;;;;;;;5094731;28;20123;-67
2022/10/21 10:43:28;;;;;;;;;;;;;;;;;;5060357;28;20101;-67
2022/10/21 10:45:58;;;;;;;31.90;18.48;;;;;;;;;;5055567;28;20474;-68
2022/10/21 10:48:30;;;;;;;27.80;17.92;;;;;;;;;;5058842;28;20128;-67
2022/10/21 10:50:57;;;;;;;33.75;17.67;;;;;;;;;;5090595;28;20072;-65
2022/10/21 10:53:33;;;;;;;29.30;17.35;;;;;;;;;;5060630;28;20127;-65
2022/10/21 10:56:13;;;;;;;39.10;18.70;;;;;;;;;;5089413;28;20509;-65
2022/10/21 10:58:42;;;;;;;25.05;18.20;;;;;;;;;;5058797;28;20068;-66
2022/10/21 11:01:11;;;;;;;26.60;16.60;;;;;;;;;;5058944;28;20178;-66
2022/10/21 11:03:39;;;;;;;28.27;17.48;;;;;;;;;;5059534;28;20097;-65
2022/10/21 11:06:13;;;;;;;25.52;16.25;;;;;;;;;;5093539;28;20047;-66
2022/10/21 11:08:42;;;;;;;25.98;16.15;;;;;;;;;;5056990;28;20140;-66
2022/10/21 11:11:21;;;;;;;26.10;16.45;;;;;;;;;;5059982;28;20055;-66
2022/10/21 11:13:47;;;;;;;30.75;16.48;;;;;;;;;;5058983;28;20056;-64
2022/10/21 11:16:29;;;;;;;26.75;15.07;;;;;;;;;;5054841;28;20041;-64
2022/10/21 11:19:00;;;;;;;24.30;14.55;;;;;;;;;;5056298;28;20040;-64
2022/10/21 11:21:44;;;;;;;28.10;15.40;;;;;;;;;;5060089;28;20045;-64
2022/10/21 11:24:14;;;;;;;23.00;14.23;;;;;;;;;;5055041;28;20099;-64
2022/10/21 11:26:54;;;;;;;26.67;14.68;;;;;;;;;;5058697;28;20044;-64
2022/10/21 11:29:23;;;;;;;23.80;14.20;;;;;;;;;;5054661;28;20056;-64
2022/10/21 11:31:59;;;;;;;21.30;13.18;;;;;;;;;;5059888;28;20051;-64
2022/10/21 11:34:26;;;;;;;21.73;12.95;;;;;;;;;;5094092;28;20051;-64
2022/10/21 11:37:01;;;;;;;23.77;13.02;;;;;;;;;;5058408;28;20049;-65
2022/10/21 11:39:53;;;;;;;24.50;13.23;;;;;;;;;;5076927;28;20052;-64
2022/10/21 11:42:30;;;;;;;20.33;12.73;;;;;;;;;;5057054;28;20083;-64
2022/10/21 11:45:02;;;;;;;20.27;12.07;;;;;;;;;;5066620;28;20055;-64
2022/10/21 11:47:28;;;;;;;19.92;12.50;;;;;;;;;;5060536;28;20155;-64
2022/10/21 11:50:12;;;;;;;24.30;12.55;;;;;;;;;;5059846;28;20127;-64
2022/10/21 11:52:41;;;;;;;24.23;13.07;;;;;;;;;;5092038;28;20056;-64
2022/10/21 11:55:14;;;;;;;20.23;12.10;;;;;;;;;;5062794;28;20680;-64
2022/10/21 11:57:54;;;;;;;20.30;11.73;;;;;;;;;;5063548;28;20219;-65
2022/10/21 12:00:22;;;;;;;19.20;11.82;;;;;;;;;;5056235;28;20041;-64
2022/10/21 12:02:54;;;;;;;18.55;11.10;;;;;;;;;;5063710;28;20110;-64
2022/10/21 12:05:26;;;;;;;19.35;10.50;;;;;;;;;;5064408;28;20037;-64
2022/10/21 12:08:11;;;;;;;17.73;10.48;;;;;;;;;;5091637;28;20270;-64
2022/10/21 12:10:40;;;;;;;16.75;11.30;;;;;;;;;;5063186;28;20055;-64
2022/10/21 12:13:13;;;;;;;21.83;11.05;;;;;;;;;;5062966;28;20451;-64
2022/10/21 12:15:41;;;;;;;19.50;10.70;;;;;;;;;;5062775;28;20036;-64
2022/10/21 12:18:12;;;;;;;16.05;10.77;;;;;;;;;;5063024;28;20056;-64
2022/10/21 12:20:39;;;;;;;30.13;10.68;;;;;;;;;;5090657;28;20055;-63
2022/10/21 12:23:06;;;;;;;15.63;9.90;;;;;;;;;;5058257;28;20036;-63
2022/10/21 12:25:38;;;;;;;18.05;10.45;;;;;;;;;;5063711;28;20040;-63
2022/10/21 12:28:11;;;;;;;22.67;10.70;;;;;;;;;;5060387;28;20569;-63
2022/10/21 12:30:37;;;;;;;15.63;9.43;;;;;;;;;;5059476;28;20040;-63
2022/10/21 12:33:03;;;;;;;743.55;126.70;;;;;;;;;;5065370;28;20048;-63
2022/10/21 12:35:44;;;;;;;25.50;10.73;;;;;;;;;;5062156;28;20041;-63
2022/10/21 12:38:20;;;;;;;18.70;10.75;;;;;;;;;;5063433;28;20036;-63
2022/10/21 12:40:47;;;;;;;18.40;10.52;;;;;;;;;;5065084;28;20053;-63
2022/10/21 12:43:21;;;;;;;18.48;9.88;;;;;;;;;;5063506;28;20063;-63
2022/10/21 12:46:00;;;;;;;25.83;10.38;;;;;;;;;;5065606;28;20051;-63
2022/10/21 12:48:30;;;;;;;21.27;10.45;;;;;;;;;;5064657;28;20129;-63
2022/10/21 12:50:58;;;;;;;18.30;9.70;;;;;;;;;;5061060;28;20052;-63
2022/10/21 12:53:32;;;;;;;19.85;10.15;;;;;;;;;;5059016;28;20045;-63
2022/10/21 12:55:59;;;;;;;14.50;8.45;;;;;;;;;;5063516;28;20079;-63
2022/10/21 12:58:33;;;;;;;18.42;9.68;;;;;;;;;;5060706;28;20047;-63
2022/10/21 13:01:01;;;;;;;12.85;8.98;;;;;;;;;;5062400;28;20052;-64
2022/10/21 13:03:40;;;;;;;15.50;8.98;;;;;;;;;;5092005;28;20056;-63
2022/10/21 13:06:06;;;;;;;14.18;8.65;;;;;;;;;;5060899;28;20088;-63
2022/10/21 13:08:51;;;;;;;15.50;9.57;;;;;;;;;;5061955;28;20051;-63
2022/10/21 13:11:21;;;;;;;18.13;8.10;;;;;;;;;;5061898;28;20127;-63
2022/10/21 13:13:48;;;;;;;14.38;8.95;;;;;;;;;;5063058;28;20047;-63
2022/10/21 13:16:18;;;;;;;18.33;9.43;;;;;;;;;;5062681;28;20101;-63
2022/10/21 13:18:50;;;;;;;22.48;9.23;;;;;;;;;;5061044;28;20387;-63
2022/10/21 13:21:30;;;;;;;17.15;9.75;;;;;;;;;;5060535;28;20048;-63
2022/10/21 13:23:58;;;;;;;23.77;9.43;;;;;;;;;;5094499;28;20052;-63
2022/10/21 13:26:26;;;;;;;20.23;10.15;;;;;;;;;;5059733;28;20052;-63
2022/10/21 13:28:55;;;;;;;16.10;9.43;;;;;;;;;;5061393;28;20086;-63
2022/10/21 13:31:22;;;;;;;14.25;8.85;;;;;;;;;;5062668;28;20048;-63
2022/10/21 13:33:53;;;;;;;18.77;10.45;;;;;;;;;;5062540;28;20055;-63
2022/10/21 13:36:34;;;;;;;18.02;9.70;;;;;;;;;;5064084;28;20028;-63
2022/10/21 13:39:03;;;;;;;17.52;9.07;;;;;;;;;;5056472;28;20036;-64
2022/10/21 13:41:30;;;;;;;1670.72;308.70;;;;;;;;;;5063455;28;20097;-64
2022/10/21 13:43:57;;;;;;;27.83;10.82;;;;;;;;;;5063542;28;20605;-64
2022/10/21 13:46:30;;;;;;;15.90;9.55;;;;;;;;;;5061985;28;20369;-64
2022/10/21 13:48:59;;;;;;;19.30;11.00;;;;;;;;;;5057220;28;20061;-65
2022/10/21 13:51:25;;;;;;;14.30;9.50;;;;;;;;;;5061294;28;20055;-65
2022/10/21 13:53:53;;;;;;;18.20;9.85;;;;;;;;;;5058156;28;20146;-65
2022/10/21 13:56:21;;;;;;;22.83;10.23;;;;;;;;;;5090549;28;20044;-65
2022/10/21 13:58:48;;;;;;;14.55;9.18;;;;;;;;;;5057407;28;20411;-64
2022/10/21 14:01:17;;;;;;;17.77;10.00;;;;;;;;;;5058184;28;20044;-65
2022/10/21 14:03:44;;;;;;;26.35;11.35;;;;;;;;;;5093054;28;20052;-65
2022/10/21 14:06:11;;;;;;;21.58;11.10;;;;;;;;;;5063171;28;20182;-65
2022/10/21 14:08:39;;;;;;;20.20;11.40;;;;;;;;;;5055739;28;20051;-64
2022/10/21 14:11:13;;;;;;;17.08;11.20;;;;;;;;;;5061092;28;20049;-64
2022/10/21 14:13:40;;;;;;;14.52;10.80;;;;;;;;;;5093289;28;20558;-64
2022/10/21 14:16:07;;;;;;;15.10;11.23;;;;;;;;;;5077647;28;20048;-64
2022/10/21 14:18:36;;;;;;;22.40;13.32;;;;;;;;;;5058236;28;20667;-64
2022/10/21 14:21:03;;;;;;;29.25;12.88;;;;;;;;;;5060885;28;20055;-64
2022/10/21 14:23:29;;;;;;;26.55;13.75;;;;;;;;;;5092039;28;20522;-72